Time;durP1;ratioP1;P1;durP2;ratioP2;P2;SDS_P1;SDS_P2;PMS_P1;PMS_P2;Temp;Humidity;BMP_temperature;BMP_pressure;BME280_temperature;BME280_humidity;BME280_pressure;Samples;Min_cycle;Max_cycle;Signal;HPM_P1;HPM_P2
2023/09/23 00:00:36;;;;;;;;;;;13.70;99.90;;;;;;4971697;28;19933;-34
2023/09/23 00:03:03;;;;;;;;;;;13.60;99.90;;;;;;4957618;28;19932;-31
2023/09/23 00:05:33;;;;;;;;;;;13.70;99.90;;;;;;4973992;28;20342;-32
2023/09/23 00:08:00;;;;;;;;;;;13.60;99.90;;;;;;4971197;28;19934;-32
2023/09/23 00:10:28;;;;;;;;;;;13.60;99.90;;;;;;4974143;28;20298;-32
2023/09/23 00:12:55;;;;;;;;;;;13.60;99.90;;;;;;4970826;28;21101;-32
2023/09/23 00:15:21;;;;;;;;;;;13.60;99.90;;;;;;4950400;28;19926;-32
2023/09/23 00:17:49;;;;;;;;;;;13.60;99.90;;;;;;4972086;28;20382;-32
2023/09/23 00:20:16;;;;;;;;;;;13.60;99.90;;;;;;4972884;28;19926;-31
2023/09/23 00:22:45;;;;;;;;;;;13.50;99.90;;;;;;4973554;28;19926;-33
2023/09/23 00:25:13;;;;;;;;;;;13.60;99.90;;;;;;4955960;28;19926;-32
2023/09/23 00:27:41;;;;;;;;;;;13.50;99.90;;;;;;4972068;28;19930;-33
2023/09/23 00:30:11;;;;;;;;;;;13.50;99.90;;;;;;4945808;29;19926;-31
2023/09/23 00:32:39;;;;;;;;;;;13.50;99.90;;;;;;4950791;28;20350;-32
2023/09/23 00:35:06;;;;;;;;;;;13.50;99.90;;;;;;4973624;28;20389;-32
2023/09/23 00:37:33;;;;;;;;;;;13.40;99.90;;;;;;4973544;28;19981;-32
2023/09/23 00:40:00;;;;;;;;;;;13.40;99.90;;;;;;4962262;28;19938;-32
2023/09/23 00:42:27;;;;;;;;;;;13.40;99.90;;;;;;4972614;28;19977;-33
2023/09/23 00:44:55;;;;;;;;;;;13.40;99.90;;;;;;4971040;28;19933;-32
2023/09/23 00:47:23;;;;;;;;;;;13.30;99.90;;;;;;4971664;28;20362;-31
2023/09/23 00:49:49;;;;;;;;;;;13.40;99.90;;;;;;4971999;28;19930;-32
2023/09/23 00:52:16;;;;;;;;;;;13.30;99.90;;;;;;4955952;28;19929;-31
2023/09/23 00:54:43;;;;;;;;;;;13.30;99.90;;;;;;4972782;28;20285;-32
2023/09/23 00:57:10;;;;;;;;;;;13.30;99.90;;;;;;4951009;28;19930;-32
2023/09/23 00:59:40;;;;;;;;;;;13.30;99.90;;;;;;4970404;28;20313;-33
2023/09/23 01:02:08;;;;;;;;;;;13.30;99.90;;;;;;4971907;28;20329;-32
2023/09/23 01:04:35;;;;;;;;;;;13.30;99.90;;;;;;4970776;28;19981;-33
2023/09/23 01:07:02;;;;;;;;;;;13.30;99.90;;;;;;4972355;28;19926;-32
2023/09/23 01:09:31;;;;;;;;;;;13.30;99.90;;;;;;4972102;28;19933;-32
2023/09/23 01:11:57;;;;;;;;;;;13.20;99.90;;;;;;4972181;28;20016;-33
2023/09/23 01:14:25;;;;;;;;;;;13.30;99.90;;;;;;4971498;28;19981;-32
2023/09/23 01:16:52;;;;;;;;;;;13.20;99.90;;;;;;4971170;28;19934;-31
2023/09/23 01:19:20;;;;;;;;;;;13.20;99.90;;;;;;4972821;28;20021;-33
2023/09/23 01:21:48;;;;;;;;;;;13.20;99.90;;;;;;4971671;28;19926;-32
2023/09/23 01:24:17;;;;;;;;;;;13.20;99.90;;;;;;4970653;28;19934;-32
2023/09/23 01:26:44;;;;;;;;;;;13.20;99.90;;;;;;4971291;28;19926;-32
2023/09/23 01:29:12;;;;;;;;;;;13.20;99.90;;;;;;4970929;28;19977;-32
2023/09/23 01:31:39;;;;;;;;;;;13.20;99.90;;;;;;4970002;28;19926;-33
2023/09/23 01:34:06;;;;;;;;;;;13.20;99.90;;;;;;4972267;28;19933;-35
2023/09/23 01:36:33;;;;;;;;;;;13.20;99.90;;;;;;4971158;28;19933;-32
2023/09/23 01:39:00;;;;;;;;;;;13.20;99.90;;;;;;4967392;28;19994;-32
2023/09/23 01:41:28;;;;;;;;;;;13.20;99.90;;;;;;4966221;28;19926;-32
2023/09/23 01:43:55;;;;;;;;;;;13.20;99.90;;;;;;4971638;28;20020;-32
2023/09/23 01:46:21;;;;;;;;;;;13.20;99.90;;;;;;4971242;28;19981;-32
2023/09/23 01:48:48;;;;;;;;;;;13.20;99.90;;;;;;4967638;28;19934;-32
2023/09/23 01:51:16;;;;;;;;;;;13.10;99.90;;;;;;4952737;29;20426;-32
2023/09/23 01:53:43;;;;;;;;;;;13.10;99.90;;;;;;4952317;28;20387;-32
2023/09/23 01:56:09;;;;;;;;;;;13.10;99.90;;;;;;4955247;29;20415;-32
2023/09/23 01:58:37;;;;;;;;;;;13.10;99.90;;;;;;4972006;28;19985;-32
2023/09/23 02:01:04;;;;;;;;;;;13.10;99.90;;;;;;4971579;28;19926;-32
2023/09/23 02:03:31;;;;;;;;;;;13.00;99.90;;;;;;4956300;29;19934;-31
2023/09/23 02:05:58;;;;;;;;;;;13.00;99.90;;;;;;4955133;29;20029;-32
2023/09/23 02:08:24;;;;;;;;;;;13.00;99.90;;;;;;4973044;28;20191;-32
2023/09/23 02:10:51;;;;;;;;;;;13.00;99.90;;;;;;4971788;28;19966;-32
2023/09/23 02:13:18;;;;;;;;;;;12.90;99.90;;;;;;4956929;28;20374;-33
2023/09/23 02:15:47;;;;;;;;;;;12.90;99.90;;;;;;4956218;28;19933;-33
2023/09/23 02:18:15;;;;;;;;;;;12.90;99.90;;;;;;4957010;29;19980;-31
2023/09/23 02:20:43;;;;;;;;;;;12.80;99.90;;;;;;4972943;28;19930;-32
2023/09/23 02:23:09;;;;;;;;;;;12.80;99.90;;;;;;4956877;28;19957;-32
2023/09/23 02:25:36;;;;;;;;;;;12.80;99.90;;;;;;4970692;28;19927;-32
2023/09/23 02:28:02;;;;;;;;;;;12.80;99.90;;;;;;4955414;29;19927;-31
2023/09/23 02:30:29;;;;;;;;;;;12.70;99.90;;;;;;4969279;28;20363;-33
2023/09/23 02:32:58;;;;;;;;;;;12.70;99.90;;;;;;4957379;29;20303;-32
2023/09/23 02:35:25;;;;;;;;;;;12.70;99.90;;;;;;4953807;29;20422;-32
2023/09/23 02:37:53;;;;;;;;;;;12.70;99.90;;;;;;4955213;29;20407;-32
2023/09/23 02:40:20;;;;;;;;;;;12.60;99.90;;;;;;4950834;29;19982;-32
2023/09/23 02:42:48;;;;;;;;;;;12.60;99.90;;;;;;4957494;28;20414;-32
2023/09/23 02:45:15;;;;;;;;;;;12.60;99.90;;;;;;4955994;28;20386;-31
2023/09/23 02:47:43;;;;;;;;;;;12.50;99.90;;;;;;4960735;28;20009;-32
2023/09/23 02:50:13;;;;;;;;;;;12.50;99.90;;;;;;4958104;28;19926;-32
2023/09/23 02:52:40;;;;;;;;;;;12.50;99.90;;;;;;4974144;28;20021;-32
2023/09/23 02:55:10;;;;;;;;;;;12.50;99.90;;;;;;4974157;28;19987;-34
2023/09/23 02:57:37;;;;;;;;;;;12.50;99.90;;;;;;4972112;28;20378;-31
2023/09/23 03:00:15;;;;;;;;;;;12.50;99.90;;;;;;4973207;28;20378;-32
2023/09/23 03:02:45;;;;;;;;;;;12.40;99.90;;;;;;4971931;28;19926;-33
2023/09/23 03:05:16;;;;;;;;;;;12.40;99.90;;;;;;4973884;28;19930;-31
2023/09/23 03:07:42;;;;;;;;;;;12.30;99.90;;;;;;4971258;28;19926;-31
2023/09/23 03:10:12;;;;;;;;;;;12.30;99.90;;;;;;4974775;28;19926;-32
2023/09/23 03:12:43;;;;;;;;;;;12.30;99.90;;;;;;4975547;28;19962;-32
2023/09/23 03:15:14;;;;;;;;;;;12.30;99.90;;;;;;4973322;28;20324;-32
2023/09/23 03:17:42;;;;;;;;;;;12.20;99.90;;;;;;4972480;28;19942;-31
2023/09/23 03:20:21;;;;;;;;;;;12.20;99.90;;;;;;4972748;28;19974;-31
2023/09/23 03:22:50;;;;;;;;;;;12.10;99.90;;;;;;4973677;28;19926;-31
2023/09/23 03:25:20;;;;;;;;;;;12.10;99.90;;;;;;4956694;29;19926;-32
2023/09/23 03:27:47;;;;;;;;;;;12.10;99.90;;;;;;4972230;28;19949;-32
2023/09/23 03:30:14;;;;;;;;;;;12.10;99.90;;;;;;4972577;28;20001;-32
2023/09/23 03:32:41;;;;;;;;;;;12.00;99.90;;;;;;4974368;28;20006;-32
2023/09/23 03:35:13;;;;;;;;;;;12.00;99.90;;;;;;4972818;28;19973;-32
2023/09/23 03:37:40;;;;;;;;;;;12.00;99.90;;;;;;4973674;28;19926;-31
2023/09/23 03:40:09;;;;;;;;;;;11.90;99.90;;;;;;4972787;28;19926;-34
2023/09/23 03:42:36;;;;;;;;;;;11.80;99.90;;;;;;4972977;28;19926;-32
2023/09/23 03:45:03;;;;;;;;;;;11.80;99.90;;;;;;4973706;28;19989;-32
2023/09/23 03:47:29;;;;;;;;;;;11.80;99.90;;;;;;4974045;28;20013;-32
2023/09/23 03:49:57;;;;;;;;;;;11.70;99.90;;;;;;4974218;28;19926;-31
2023/09/23 03:52:24;;;;;;;;;;;11.70;99.90;;;;;;4974589;28;19926;-31
2023/09/23 03:54:52;;;;;;;;;;;11.70;99.90;;;;;;4974140;28;20391;-32
2023/09/23 03:57:21;;;;;;;;;;;11.60;99.90;;;;;;4973080;28;20461;-32
2023/09/23 03:59:47;;;;;;;;;;;11.60;99.90;;;;;;4971499;28;20374;-31
2023/09/23 04:02:15;;;;;;;;;;;11.60;99.90;;;;;;4972765;28;19926;-31
2023/09/23 04:04:42;;;;;;;;;;;11.60;99.90;;;;;;4974971;28;19926;-31
2023/09/23 04:07:09;;;;;;;;;;;11.50;99.90;;;;;;4972921;28;19926;-30
2023/09/23 04:09:36;;;;;;;;;;;11.60;99.90;;;;;;4967512;28;19930;-30
2023/09/23 04:12:05;;;;;;;;;;;11.60;99.90;;;;;;4973380;28;19986;-31
2023/09/23 04:14:34;;;;;;;;;;;11.50;99.90;;;;;;4974368;28;19927;-31
2023/09/23 04:17:00;;;;;;;;;;;11.60;99.90;;;;;;4971613;28;20480;-30
2023/09/23 04:19:28;;;;;;;;;;;11.50;99.90;;;;;;4972153;28;20362;-31
2023/09/23 04:21:55;;;;;;;;;;;11.50;99.90;;;;;;4973917;28;20437;-32
2023/09/23 04:24:22;;;;;;;;;;;11.50;99.90;;;;;;4972536;28;20379;-31
2023/09/23 04:26:49;;;;;;;;;;;11.50;99.90;;;;;;4969790;28;19996;-30
2023/09/23 04:29:19;;;;;;;;;;;11.50;99.90;;;;;;4971918;28;19926;-31
2023/09/23 04:31:49;;;;;;;;;;;11.50;99.90;;;;;;4973976;28;20024;-31
2023/09/23 04:34:17;;;;;;;;;;;11.50;99.90;;;;;;4973351;28;20334;-31
2023/09/23 04:36:43;;;;;;;;;;;11.50;99.90;;;;;;4973436;28;20183;-31
2023/09/23 04:39:10;;;;;;;;;;;11.40;99.90;;;;;;4971395;28;20354;-31
2023/09/23 04:41:39;;;;;;;;;;;11.50;99.90;;;;;;4970954;28;19989;-31
2023/09/23 04:44:06;;;;;;;;;;;11.40;99.90;;;;;;4971306;28;19965;-31
2023/09/23 04:46:33;;;;;;;;;;;11.40;99.90;;;;;;4972097;28;19976;-31
2023/09/23 04:49:02;;;;;;;;;;;11.40;99.90;;;;;;4971091;28;19933;-31
2023/09/23 04:51:29;;;;;;;;;;;11.40;99.90;;;;;;4970791;28;20021;-32
2023/09/23 04:53:56;;;;;;;;;;;11.40;99.90;;;;;;4972223;28;19933;-31
2023/09/23 04:56:23;;;;;;;;;;;11.40;99.90;;;;;;4970858;28;19930;-33
2023/09/23 04:58:49;;;;;;;;;;;11.30;99.90;;;;;;4968919;28;19993;-31
2023/09/23 05:01:16;;;;;;;;;;;11.30;99.90;;;;;;4967929;28;20302;-31
2023/09/23 05:03:43;;;;;;;;;;;11.30;99.90;;;;;;4968267;28;20527;-31
2023/09/23 05:06:11;;;;;;;;;;;11.20;99.90;;;;;;4971626;28;19926;-33
2023/09/23 05:08:38;;;;;;;;;;;11.20;99.90;;;;;;4971132;28;19966;-31
2023/09/23 05:11:06;;;;;;;;;;;11.20;99.90;;;;;;4967203;28;20369;-32
2023/09/23 05:13:33;;;;;;;;;;;11.20;99.90;;;;;;4953693;28;20379;-32
2023/09/23 05:16:00;;;;;;;;;;;11.20;99.90;;;;;;4955069;28;19926;-32
2023/09/23 05:18:27;;;;;;;;;;;11.20;99.90;;;;;;4971271;28;20012;-30
2023/09/23 05:20:53;;;;;;;;;;;11.20;99.90;;;;;;4971976;28;20346;-30
2023/09/23 05:23:23;;;;;;;;;;;11.10;99.90;;;;;;4972891;28;19973;-30
2023/09/23 05:25:50;;;;;;;;;;;11.10;99.90;;;;;;4972160;28;19926;-32
2023/09/23 05:28:16;;;;;;;;;;;11.10;99.90;;;;;;4968390;28;20371;-32
2023/09/23 05:30:43;;;;;;;;;;;11.10;99.90;;;;;;4967436;28;20410;-31
2023/09/23 05:33:10;;;;;;;;;;;11.10;99.90;;;;;;4969597;28;19969;-30
2023/09/23 05:35:39;;;;;;;;;;;11.20;99.90;;;;;;4971159;28;20410;-31
2023/09/23 05:38:05;;;;;;;;;;;11.10;99.90;;;;;;4971934;28;19933;-31
2023/09/23 05:40:36;;;;;;;;;;;11.10;99.90;;;;;;4969230;28;19926;-32
2023/09/23 05:43:03;;;;;;;;;;;11.10;99.90;;;;;;4972333;28;19926;-31
2023/09/23 05:45:31;;;;;;;;;;;11.20;99.90;;;;;;4969196;28;19926;-31
2023/09/23 05:47:58;;;;;;;;;;;11.20;99.90;;;;;;4972530;28;19945;-31
2023/09/23 05:50:24;;;;;;;;;;;11.20;99.90;;;;;;4969150;28;19926;-30
2023/09/23 05:52:52;;;;;;;;;;;11.20;99.90;;;;;;4972126;28;19926;-31
2023/09/23 05:55:19;;;;;;;;;;;11.30;99.90;;;;;;4971709;28;19926;-32
2023/09/23 05:57:47;;;;;;;;;;;11.30;99.90;;;;;;4971137;28;20347;-31
2023/09/23 06:00:15;;;;;;;;;;;11.30;99.90;;;;;;4970595;28;19941;-31
2023/09/23 06:02:44;;;;;;;;;;;11.30;99.90;;;;;;4971232;28;19977;-32
2023/09/23 06:05:11;;;;;;;;;;;11.40;99.90;;;;;;4971480;28;20376;-32
2023/09/23 06:07:38;;;;;;;;;;;11.40;99.90;;;;;;4972269;28;19981;-30
2023/09/23 06:10:06;;;;;;;;;;;11.40;99.90;;;;;;4970316;28;20355;-33
2023/09/23 06:12:32;;;;;;;;;;;11.40;99.90;;;;;;4969984;28;19926;-32
2023/09/23 06:15:01;;;;;;;;;;;11.50;99.90;;;;;;4972388;28;19926;-32
2023/09/23 06:17:28;;;;;;;;;;;11.50;99.90;;;;;;4970882;28;20016;-32
2023/09/23 06:19:56;;;;;;;;;;;11.50;99.90;;;;;;4970905;28;19941;-30
2023/09/23 06:22:23;;;;;;;;;;;11.60;99.90;;;;;;4968701;28;20267;-33
2023/09/23 06:24:49;;;;;;;;;;;11.60;99.90;;;;;;4976972;28;19996;-33
2023/09/23 06:27:16;;;;;;;;;;;11.60;99.90;;;;;;4977131;28;19962;-31
2023/09/23 06:29:43;;;;;;;;;;;11.60;99.90;;;;;;4970457;28;19954;-31
2023/09/23 06:32:11;;;;;;;;;;;11.60;99.90;;;;;;4970402;28;19989;-32
2023/09/23 06:34:38;;;;;;;;;;;11.70;99.90;;;;;;4953459;28;19926;-32
2023/09/23 06:37:04;;;;;;;;;;;11.70;99.90;;;;;;4952850;28;20294;-33
2023/09/23 06:39:31;;;;;;;;;;;11.70;99.90;;;;;;4970112;28;19930;-33
2023/09/23 06:41:58;;;;;;;;;;;11.70;99.90;;;;;;4965824;28;19984;-32
2023/09/23 06:44:24;;;;;;;;;;;11.80;99.90;;;;;;4966065;28;19949;-31
2023/09/23 06:46:51;;;;;;;;;;;11.80;99.90;;;;;;4976312;28;19953;-32
2023/09/23 06:49:19;;;;;;;;;;;11.80;99.90;;;;;;4973108;28;19930;-31
2023/09/23 06:51:46;;;;;;;;;;;11.90;99.90;;;;;;4972644;28;20263;-32
2023/09/23 06:54:12;;;;;;;;;;;11.90;99.90;;;;;;4971317;28;20256;-32
2023/09/23 06:56:39;;;;;;;;;;;11.90;99.90;;;;;;4986558;28;19926;-33
2023/09/23 06:59:06;;;;;;;;;;;12.00;99.90;;;;;;4975338;28;20264;-31
2023/09/23 07:01:34;;;;;;;;;;;12.00;99.90;;;;;;4969499;28;19927;-34
2023/09/23 07:04:01;;;;;;;;;;;12.10;99.90;;;;;;4971464;28;20016;-33
2023/09/23 07:06:29;;;;;;;;;;;12.20;99.90;;;;;;4974171;28;19934;-32
2023/09/23 07:08:55;;;;;;;;;;;12.30;99.90;;;;;;4972173;28;20422;-31
2023/09/23 07:11:23;;;;;;;;;;;12.40;99.90;;;;;;4974655;28;19934;-33
2023/09/23 07:13:50;;;;;;;;;;;12.40;99.90;;;;;;4970265;28;19959;-31
2023/09/23 07:16:16;;;;;;;;;;;12.40;99.90;;;;;;4949329;28;20433;-34
2023/09/23 07:18:44;;;;;;;;;;;12.50;99.90;;;;;;4954309;28;20000;-33
2023/09/23 07:21:11;;;;;;;;;;;12.50;99.90;;;;;;4969890;28;19981;-32
2023/09/23 07:23:39;;;;;;;;;;;12.60;99.90;;;;;;4972141;28;19933;-31
2023/09/23 07:26:06;;;;;;;;;;;12.70;99.90;;;;;;4973732;28;19996;-32
2023/09/23 07:28:33;;;;;;;;;;;12.70;99.90;;;;;;4957150;28;20288;-33
2023/09/23 07:31:00;;;;;;;;;;;12.80;99.90;;;;;;4971835;28;19965;-31
2023/09/23 07:33:27;;;;;;;;;;;12.90;99.90;;;;;;4964843;28;19926;-32
2023/09/23 07:35:53;;;;;;;;;;;12.90;99.90;;;;;;4973091;28;19930;-31
2023/09/23 07:38:20;;;;;;;;;;;13.00;99.90;;;;;;4953692;28;20367;-31
2023/09/23 07:40:48;;;;;;;;;;;13.10;99.90;;;;;;4966022;28;20379;-32
2023/09/23 07:43:15;;;;;;;;;;;13.20;99.90;;;;;;4974555;28;19929;-32
2023/09/23 07:45:41;;;;;;;;;;;13.20;99.90;;;;;;4973943;28;19926;-32
2023/09/23 07:48:08;;;;;;;;;;;13.30;99.90;;;;;;4973898;28;19981;-32
2023/09/23 07:50:35;;;;;;;;;;;13.40;99.90;;;;;;4970204;28;19926;-31
2023/09/23 07:53:02;;;;;;;;;;;13.50;99.90;;;;;;4971821;28;20028;-34
2023/09/23 07:55:28;;;;;;;;;;;13.60;99.90;;;;;;4954655;28;20000;-31
2023/09/23 07:57:56;;;;;;;;;;;13.70;99.90;;;;;;4972081;28;19926;-30
2023/09/23 08:00:24;;;;;;;;;;;13.80;99.90;;;;;;4971486;28;20291;-32
2023/09/23 08:02:51;;;;;;;;;;;13.90;99.90;;;;;;4954801;28;19930;-33
2023/09/23 08:05:18;;;;;;;;;;;14.00;99.90;;;;;;4954842;28;20004;-31
2023/09/23 08:07:45;;;;;;;;;;;14.10;99.90;;;;;;4970687;28;20564;-34
2023/09/23 08:10:11;;;;;;;;;;;14.10;99.90;;;;;;4951276;28;19926;-31
2023/09/23 08:12:38;;;;;;;;;;;14.20;99.90;;;;;;4955229;28;19933;-32
2023/09/23 08:15:08;;;;;;;;;;;14.30;99.90;;;;;;4962946;28;19977;-32
2023/09/23 08:17:34;;;;;;;;;;;14.30;99.90;;;;;;4966559;28;19932;-32
2023/09/23 08:20:17;;;;;;;;;;;14.30;99.90;;;;;;4974361;28;19926;-31
2023/09/23 08:22:44;;;;;;;;;;;14.40;99.90;;;;;;4970680;28;20063;-32
2023/09/23 08:25:11;;;;;;;;;;;14.30;99.90;;;;;;4972610;28;19932;-33
2023/09/23 08:27:38;;;;;;;;;;;14.30;99.90;;;;;;4954307;28;19947;-33
2023/09/23 08:30:08;;;;;;;;;;;14.40;99.90;;;;;;4970115;28;19930;-32
2023/09/23 08:32:34;;;;;;;;;;;14.50;99.90;;;;;;4971948;28;20683;-32
2023/09/23 08:35:02;;;;;;;;;;;14.60;99.90;;;;;;4971235;28;19926;-31
2023/09/23 08:37:29;;;;;;;;;;;14.70;99.90;;;;;;4971618;28;19988;-31
2023/09/23 08:39:55;;;;;;;;;;;14.90;99.90;;;;;;4968941;28;19927;-35
2023/09/23 08:42:24;;;;;;;;;;;15.00;99.90;;;;;;4941539;28;20430;-31
2023/09/23 08:44:50;;;;;;;;;;;15.10;99.90;;;;;;4972634;28;20013;-31
2023/09/23 08:47:19;;;;;;;;;;;15.20;99.90;;;;;;4971975;28;19926;-31
2023/09/23 08:49:45;;;;;;;;;;;15.20;99.90;;;;;;4971137;28;19930;-33
2023/09/23 08:52:12;;;;;;;;;;;15.30;99.90;;;;;;4971383;28;20013;-32
2023/09/23 08:54:39;;;;;;;;;;;15.40;99.90;;;;;;4972284;28;19926;-32
2023/09/23 08:57:05;;;;;;;;;;;15.50;99.90;;;;;;4970887;28;19930;-32
2023/09/23 08:59:32;;;;;;;;;;;15.60;99.90;;;;;;4954227;28;20350;-32
2023/09/23 09:01:59;;;;;;;;;;;15.80;99.90;;;;;;4954571;28;20375;-32
2023/09/23 09:04:27;;;;;;;;;;;16.10;99.90;;;;;;4972791;28;20311;-31
2023/09/23 09:06:54;;;;;;;;;;;16.30;99.90;;;;;;4954915;28;19926;-33
2023/09/23 09:09:20;;;;;;;;;;;16.40;99.90;;;;;;4938613;29;19977;-32
2023/09/23 09:11:47;;;;;;;;;;;16.50;99.90;;;;;;4969554;28;19926;-32
2023/09/23 09:14:14;;;;;;;;;;;16.50;99.90;;;;;;4950491;28;19927;-32
2023/09/23 09:16:41;;;;;;;;;;;16.70;99.90;;;;;;4967375;28;19926;-32
2023/09/23 09:19:08;;;;;;;;;;;16.90;99.90;;;;;;4970384;28;20374;-32
2023/09/23 09:21:36;;;;;;;;;;;17.00;99.90;;;;;;4968879;28;19984;-31
2023/09/23 09:24:02;;;;;;;;;;;17.10;99.90;;;;;;4969881;28;20346;-31
2023/09/23 09:26:30;;;;;;;;;;;17.20;99.90;;;;;;4967638;28;19926;-31
2023/09/23 09:28:57;;;;;;;;;;;17.30;99.90;;;;;;4967149;28;19926;-32
2023/09/23 09:31:23;;;;;;;;;;;17.20;99.90;;;;;;4967415;28;19956;-31
2023/09/23 09:33:51;;;;;;;;;;;17.10;99.90;;;;;;4967440;28;19927;-32
2023/09/23 09:36:18;;;;;;;;;;;17.00;99.90;;;;;;4969297;28;19930;-32
2023/09/23 09:38:47;;;;;;;;;;;17.00;99.90;;;;;;4971919;28;20266;-31
2023/09/23 09:41:15;;;;;;;;;;;16.90;99.90;;;;;;4970145;28;19933;-33
2023/09/23 09:43:41;;;;;;;;;;;17.00;99.90;;;;;;4967061;28;19985;-32
2023/09/23 09:46:08;;;;;;;;;;;17.20;99.90;;;;;;4970813;28;19927;-32
2023/09/23 09:48:37;;;;;;;;;;;17.30;99.90;;;;;;4967730;28;19974;-32
2023/09/23 09:51:05;;;;;;;;;;;17.40;99.90;;;;;;4970861;28;19946;-32
2023/09/23 09:53:33;;;;;;;;;;;17.50;99.90;;;;;;4950781;28;20009;-32
2023/09/23 09:56:01;;;;;;;;;;;17.60;99.90;;;;;;4969690;28;19980;-31
2023/09/23 09:58:37;;;;;;;;;;;17.60;99.90;;;;;;4968077;28;19926;-32
2023/09/23 10:01:03;;;;;;;;;;;17.60;99.90;;;;;;4950456;28;20391;-32
2023/09/23 10:03:30;;;;;;;;;;;17.60;99.90;;;;;;4969693;28;19930;-32
2023/09/23 10:05:59;;;;;;;;;;;17.50;99.90;;;;;;4964946;28;19930;-33
2023/09/23 10:08:26;;;;;;;;;;;17.50;99.90;;;;;;4946783;28;20375;-32
2023/09/23 10:11:02;;;;;;;;;;;17.60;99.90;;;;;;4967856;28;19929;-32
2023/09/23 10:13:31;;;;;;;;;;;17.70;99.90;;;;;;4969278;28;20298;-31
2023/09/23 10:16:03;;;;;;;;;;;17.80;99.90;;;;;;4971142;28;19926;-33
2023/09/23 10:18:34;;;;;;;;;;;17.90;99.90;;;;;;4955991;28;19926;-32
2023/09/23 10:21:02;;;;;;;;;;;17.90;99.90;;;;;;4971384;28;19941;-32
2023/09/23 10:23:28;;;;;;;;;;;17.90;99.90;;;;;;4972976;28;19926;-32
2023/09/23 10:25:55;;;;;;;;;;;17.80;99.90;;;;;;4959252;28;19930;-31
2023/09/23 10:28:24;;;;;;;;;;;17.80;99.90;;;;;;4973405;28;20350;-32
2023/09/23 10:30:58;;;;;;;;;;;17.80;99.90;;;;;;4972362;28;19973;-32
2023/09/23 10:33:26;;;;;;;;;;;17.90;99.90;;;;;;4972930;28;20441;-31
2023/09/23 10:35:52;;;;;;;;;;;18.00;99.90;;;;;;4975122;28;19930;-31
2023/09/23 10:38:22;;;;;;;;;;;18.20;99.90;;;;;;4976062;28;19989;-31
2023/09/23 10:40:50;;;;;;;;;;;18.30;99.90;;;;;;4972539;28;19932;-31
2023/09/23 10:43:17;;;;;;;;;;;18.40;99.90;;;;;;4971154;28;19930;-32
2023/09/23 10:45:43;;;;;;;;;;;18.70;99.90;;;;;;4974687;28;19930;-32
2023/09/23 10:48:13;;;;;;;;;;;18.80;99.90;;;;;;4975140;28;20374;-31
2023/09/23 10:50:40;;;;;;;;;;;18.80;99.90;;;;;;4972667;28;19927;-31
2023/09/23 10:53:07;;;;;;;;;;;18.70;99.90;;;;;;4956736;28;20390;-32
2023/09/23 10:55:34;;;;;;;;;;;18.70;99.90;;;;;;4972743;28;20330;-32
2023/09/23 10:58:01;;;;;;;;;;;18.70;99.90;;;;;;4975874;28;19926;-32
2023/09/23 11:00:28;;;;;;;;;;;18.70;99.90;;;;;;4955643;28;19933;-33
2023/09/23 11:02:54;;;;;;;;;;;18.70;99.90;;;;;;4966926;28;19926;-31
2023/09/23 11:05:23;;;;;;;;;;;18.70;99.90;;;;;;4972300;28;19926;-32
2023/09/23 11:07:50;;;;;;;;;;;18.70;99.90;;;;;;4971192;28;19930;-31
2023/09/23 11:10:16;;;;;;;;;;;18.60;99.90;;;;;;4971437;28;19930;-32
2023/09/23 11:12:45;;;;;;;;;;;18.60;99.90;;;;;;4967514;28;19933;-32
2023/09/23 11:15:12;;;;;;;;;;;18.70;99.90;;;;;;4973207;28;20318;-32
2023/09/23 11:17:40;;;;;;;;;;;18.70;99.90;;;;;;4973628;28;19982;-32
2023/09/23 11:20:10;;;;;;;;;;;18.70;99.90;;;;;;4973432;28;19930;-31
2023/09/23 11:22:38;;;;;;;;;;;18.70;99.90;;;;;;4972903;28;19937;-32
2023/09/23 11:25:09;;;;;;;;;;;18.70;99.90;;;;;;4969163;28;20374;-32
2023/09/23 11:27:36;;;;;;;;;;;18.70;99.90;;;;;;4973777;28;19980;-32
2023/09/23 11:30:04;;;;;;;;;;;18.80;99.90;;;;;;4974070;28;20317;-31
2023/09/23 11:32:32;;;;;;;;;;;18.90;99.90;;;;;;4953737;28;19977;-32
2023/09/23 11:35:00;;;;;;;;;;;19.00;99.90;;;;;;4968892;28;20358;-32
2023/09/23 11:37:27;;;;;;;;;;;19.20;99.90;;;;;;4969317;28;19930;-31
2023/09/23 11:39:56;;;;;;;;;;;19.20;99.90;;;;;;4969801;28;19931;-31
2023/09/23 11:42:22;;;;;;;;;;;19.40;99.90;;;;;;4970819;28;19933;-32
2023/09/23 11:44:49;;;;;;;;;;;19.40;99.90;;;;;;4971004;28;19934;-33
2023/09/23 11:47:17;;;;;;;;;;;19.50;99.90;;;;;;4968967;28;20334;-32
2023/09/23 11:49:44;;;;;;;;;;;19.50;99.90;;;;;;4970840;28;20506;-33
2023/09/23 11:52:13;;;;;;;;;;;19.60;99.90;;;;;;4971599;28;20413;-32
2023/09/23 11:54:40;;;;;;;;;;;19.60;99.90;;;;;;4974551;28;19968;-33
2023/09/23 11:57:08;;;;;;;;;;;19.70;99.90;;;;;;4949275;28;19996;-34
2023/09/23 11:59:34;;;;;;;;;;;19.70;99.90;;;;;;4952817;28;19977;-32
2023/09/23 12:02:02;;;;;;;;;;;19.60;99.90;;;;;;4969461;28;19926;-33
2023/09/23 12:04:28;;;;;;;;;;;19.50;99.90;;;;;;4952294;28;19926;-32
2023/09/23 12:06:55;;;;;;;;;;;19.40;99.90;;;;;;4973246;28;19933;-32
2023/09/23 12:09:23;;;;;;;;;;;19.30;99.90;;;;;;4973923;28;19973;-33
2023/09/23 12:11:50;;;;;;;;;;;19.30;99.90;;;;;;4971952;28;19926;-33
2023/09/23 12:14:19;;;;;;;;;;;19.20;99.90;;;;;;4971189;28;19934;-31
2023/09/23 12:16:46;;;;;;;;;;;19.20;99.90;;;;;;4972526;28;20407;-31
2023/09/23 12:19:12;;;;;;;;;;;19.10;99.90;;;;;;4946264;28;19926;-31
2023/09/23 12:21:40;;;;;;;;;;;19.10;99.90;;;;;;4953320;28;19926;-33
2023/09/23 12:24:06;;;;;;;;;;;19.00;99.90;;;;;;4972046;28;19976;-32
2023/09/23 12:26:35;;;;;;;;;;;18.90;99.90;;;;;;4970206;28;19930;-32
2023/09/23 12:29:01;;;;;;;;;;;18.70;99.90;;;;;;4957467;28;20456;-31
2023/09/23 12:31:29;;;;;;;;;;;18.60;99.90;;;;;;4972179;28;19981;-32
2023/09/23 12:33:56;;;;;;;;;;;18.50;99.90;;;;;;4969907;28;19926;-31
2023/09/23 12:36:23;;;;;;;;;;;18.50;99.90;;;;;;4969980;28;19926;-30
2023/09/23 12:38:49;;;;;;;;;;;18.60;99.90;;;;;;4974590;28;19934;-31
2023/09/23 12:41:16;;;;;;;;;;;18.70;99.90;;;;;;4973677;28;20378;-33
2023/09/23 12:43:43;;;;;;;;;;;18.90;99.90;;;;;;4972437;28;19926;-32
2023/09/23 12:46:10;;;;;;;;;;;19.00;99.90;;;;;;4969846;28;19981;-33
2023/09/23 12:48:38;;;;;;;;;;;19.10;99.90;;;;;;4968899;28;19989;-32
2023/09/23 12:51:04;;;;;;;;;;;19.20;99.90;;;;;;4950272;28;19927;-31
2023/09/23 12:53:31;;;;;;;;;;;19.20;99.90;;;;;;4951011;28;19930;-31
2023/09/23 12:55:58;;;;;;;;;;;19.20;99.90;;;;;;4953412;29;20379;-32
2023/09/23 12:58:24;;;;;;;;;;;19.20;99.90;;;;;;4953882;29;19926;-33
2023/09/23 13:00:51;;;;;;;;;;;19.30;99.90;;;;;;4951047;28;19973;-32
2023/09/23 13:03:18;;;;;;;;;;;19.40;99.90;;;;;;4952762;28;20379;-34
2023/09/23 13:05:46;;;;;;;;;;;19.60;99.90;;;;;;4968635;28;20426;-32
2023/09/23 13:08:13;;;;;;;;;;;19.60;99.90;;;;;;4954835;29;19927;-32
2023/09/23 13:10:40;;;;;;;;;;;19.70;99.90;;;;;;4953065;29;19934;-32
2023/09/23 13:13:07;;;;;;;;;;;19.70;99.90;;;;;;4954217;28;20011;-33
2023/09/23 13:15:34;;;;;;;;;;;19.70;99.90;;;;;;4968725;28;19934;-32
2023/09/23 13:18:02;;;;;;;;;;;19.80;99.90;;;;;;4953571;29;19930;-32
2023/09/23 13:20:29;;;;;;;;;;;19.80;99.90;;;;;;4954561;29;19933;-33
2023/09/23 13:22:57;;;;;;;;;;;19.80;99.90;;;;;;4953907;29;19982;-33
2023/09/23 13:25:25;;;;;;;;;;;19.80;99.90;;;;;;4967207;28;19962;-33
2023/09/23 13:27:52;;;;;;;;;;;19.70;99.90;;;;;;4967295;28;19927;-31
2023/09/23 13:30:19;;;;;;;;;;;19.60;99.90;;;;;;4951866;28;20017;-31
2023/09/23 13:32:46;;;;;;;;;;;19.60;99.90;;;;;;4951592;28;20025;-32
2023/09/23 13:35:13;;;;;;;;;;;19.60;99.90;;;;;;4961338;28;19939;-31
2023/09/23 13:37:39;;;;;;;;;;;19.70;99.90;;;;;;4945443;29;19938;-31
2023/09/23 13:40:08;;;;;;;;;;;19.70;99.90;;;;;;4946989;28;19930;-30
2023/09/23 13:42:35;;;;;;;;;;;19.70;99.90;;;;;;4946510;29;19941;-33
2023/09/23 13:45:01;;;;;;;;;;;19.60;99.90;;;;;;4951965;29;20362;-31
2023/09/23 13:47:28;;;;;;;;;;;19.50;99.90;;;;;;4953908;28;19930;-34
2023/09/23 13:49:55;;;;;;;;;;;19.30;99.90;;;;;;4967991;28;19926;-34
2023/09/23 13:52:21;;;;;;;;;;;19.10;99.90;;;;;;4967327;28;19939;-33
2023/09/23 13:54:48;;;;;;;;;;;18.90;99.90;;;;;;4967927;28;19982;-33
2023/09/23 13:57:16;;;;;;;;;;;18.70;99.90;;;;;;4972136;28;19926;-33
2023/09/23 13:59:43;;;;;;;;;;;18.50;99.90;;;;;;4970164;28;19973;-32
2023/09/23 14:02:11;;;;;;;;;;;18.50;99.90;;;;;;4968384;28;20389;-31
2023/09/23 14:04:37;;;;;;;;;;;18.40;99.90;;;;;;4955918;28;20310;-32
2023/09/23 14:07:04;;;;;;;;;;;18.40;99.90;;;;;;4968187;28;20346;-33
2023/09/23 14:09:31;;;;;;;;;;;18.40;99.90;;;;;;4969499;28;20028;-32
2023/09/23 14:11:57;;;;;;;;;;;18.50;99.90;;;;;;4968333;28;19992;-32
2023/09/23 14:14:25;;;;;;;;;;;18.60;99.90;;;;;;4968161;28;19933;-33
2023/09/23 14:16:52;;;;;;;;;;;18.70;99.90;;;;;;4953538;28;19930;-32